createdAt,value
2018-02-18T00:00:57.655Z,88.12
2018-02-18T00:03:00.127Z,88.22
2018-02-18T00:05:02.620Z,88.22
2018-02-18T00:07:05.091Z,88.44
2018-02-18T00:09:07.593Z,88.20
2018-02-18T00:11:10.104Z,88.18
2018-02-18T00:13:12.558Z,88.51
2018-02-18T00:15:15.039Z,88.11
2018-02-18T00:17:17.482Z,88.18
2018-02-18T00:19:19.964Z,88.25
2018-02-18T00:21:22.478Z,88.48
2018-02-18T00:23:24.968Z,87.99
2018-02-18T00:25:27.421Z,87.65
2018-02-18T00:27:29.947Z,87.78
2018-02-18T00:29:32.438Z,87.64
2018-02-18T00:31:34.958Z,87.57
2018-02-18T00:33:37.442Z,87.42
2018-02-18T00:35:39.895Z,87.44
2018-02-18T00:37:42.361Z,87.73
2018-02-18T00:39:44.828Z,87.62
2018-02-18T00:41:47.337Z,88.07
2018-02-18T00:43:49.793Z,88.02
2018-02-18T00:45:52.303Z,87.94
2018-02-18T00:47:54.793Z,87.97
2018-02-18T00:49:57.263Z,87.63
2018-02-18T00:51:59.743Z,87.70
2018-02-18T00:54:02.246Z,87.53
2018-02-18T00:56:04.737Z,87.45
2018-02-18T00:58:07.199Z,87.58
2018-02-18T01:00:09.665Z,87.77
2018-02-18T01:02:12.186Z,87.52
2018-02-18T01:04:14.729Z,87.32
2018-02-18T01:06:17.222Z,87.51
2018-02-18T01:08:19.713Z,87.48
2018-02-18T01:10:22.219Z,87.68
2018-02-18T01:12:24.707Z,88.00
2018-02-18T01:14:27.180Z,87.80
2018-02-18T01:16:29.842Z,88.06
2018-02-18T01:18:32.373Z,87.89
2018-02-18T01:20:34.882Z,87.44
2018-02-18T01:22:37.339Z,87.74
2018-02-18T01:24:39.887Z,87.91
2018-02-18T01:26:42.462Z,88.13
2018-02-18T01:28:45.000Z,88.04
2018-02-18T01:30:47.454Z,88.15
2018-02-18T01:32:49.929Z,88.00
2018-02-18T01:34:52.417Z,88.17
2018-02-18T01:36:54.898Z,88.42
2018-02-18T01:38:57.394Z,88.78
2018-02-18T01:40:59.939Z,88.76
2018-02-18T01:43:02.517Z,88.86
2018-02-18T01:45:04.959Z,88.89
2018-02-18T01:47:07.458Z,89.93
2018-02-18T01:49:09.952Z,90.03
2018-02-18T01:51:12.466Z,89.99
2018-02-18T01:53:14.934Z,90.75
2018-02-18T01:55:17.435Z,90.78
2018-02-18T01:57:19.900Z,91.15
2018-02-18T01:59:22.361Z,91.28
2018-02-18T02:01:24.938Z,91.26
2018-02-18T02:03:27.563Z,91.11
2018-02-18T02:05:30.042Z,91.07
2018-02-18T02:07:32.523Z,90.69
2018-02-18T02:09:35.022Z,91.15
2018-02-18T02:11:37.481Z,91.08
2018-02-18T02:13:39.952Z,91.39
2018-02-18T02:15:42.443Z,91.36
2018-02-18T02:17:45.082Z,91.35
2018-02-18T02:19:47.609Z,91.59
2018-02-18T02:21:50.132Z,91.44
2018-02-18T02:23:52.618Z,91.53
2018-02-18T02:25:55.054Z,91.39
2018-02-18T02:27:57.654Z,91.56
2018-02-18T02:30:00.089Z,91.07
2018-02-18T02:32:02.743Z,90.87
2018-02-18T02:34:05.241Z,90.67
2018-02-18T02:36:07.733Z,90.10
2018-02-18T02:38:10.219Z,89.32
2018-02-18T02:40:12.715Z,89.88
2018-02-18T02:42:15.177Z,90.12
2018-02-18T02:44:17.702Z,90.05
2018-02-18T02:46:20.163Z,90.37
2018-02-18T02:48:22.679Z,90.50
2018-02-18T02:50:25.158Z,90.62
2018-02-18T02:52:27.657Z,90.41
2018-02-18T02:54:30.184Z,89.97
2018-02-18T02:56:32.662Z,89.38
2018-02-18T02:58:35.234Z,89.76
2018-02-18T03:00:37.745Z,89.83
2018-02-18T03:02:40.200Z,89.63
2018-02-18T03:04:42.771Z,89.52
2018-02-18T03:06:45.282Z,89.49
2018-02-18T03:08:47.770Z,89.91
2018-02-18T03:10:50.249Z,89.47
2018-02-18T03:12:52.740Z,88.09
2018-02-18T03:14:55.199Z,87.83
2018-02-18T03:16:57.697Z,87.78
2018-02-18T03:19:00.190Z,87.52
2018-02-18T03:21:02.715Z,87.05
2018-02-18T03:23:05.196Z,87.32
2018-02-18T03:25:07.710Z,87.09
2018-02-18T03:27:11.640Z,87.39
2018-02-18T03:29:14.125Z,87.33
2018-02-18T03:31:16.594Z,87.48
2018-02-18T03:33:19.169Z,87.36
2018-02-18T03:35:21.656Z,87.08
2018-02-18T03:37:24.217Z,86.54
2018-02-18T03:39:26.913Z,86.29
2018-02-18T03:41:29.373Z,85.77
2018-02-18T03:43:31.939Z,85.74
2018-02-18T03:45:34.388Z,85.65
2018-02-18T03:47:36.903Z,86.42
2018-02-18T03:49:39.415Z,86.86
2018-02-18T03:51:41.861Z,87.13
2018-02-18T03:53:44.323Z,87.00
2018-02-18T03:55:46.866Z,87.40
2018-02-18T03:57:49.395Z,87.51
2018-02-18T03:59:51.891Z,87.83
2018-02-18T04:01:54.381Z,87.75
2018-02-18T04:03:56.979Z,87.86
2018-02-18T04:05:59.424Z,87.73
2018-02-18T04:08:01.962Z,87.99
2018-02-18T04:10:04.411Z,87.97
2018-02-18T04:14:23.680Z,86.37
2018-02-18T04:16:26.135Z,86.64
2018-02-18T04:18:28.584Z,86.45
2018-02-18T04:22:39.761Z,86.75
2018-02-18T04:24:42.209Z,86.64
2018-02-18T04:26:44.714Z,86.18
2018-02-18T04:28:47.213Z,85.54
2018-02-18T04:30:49.704Z,85.39
2018-02-18T04:32:52.155Z,85.51
2018-02-18T04:34:54.662Z,85.99
2018-02-18T04:36:57.106Z,85.70
2018-02-18T04:38:59.604Z,85.36
2018-02-18T04:41:02.115Z,85.09
2018-02-18T04:43:04.579Z,86.30
2018-02-18T04:45:07.102Z,85.62
2018-02-18T04:47:09.670Z,86.23
2018-02-18T04:49:12.196Z,86.42
2018-02-18T04:51:14.643Z,86.71
2018-02-18T04:53:17.097Z,86.95
2018-02-18T04:55:19.666Z,86.86
2018-02-18T04:57:22.138Z,86.87
2018-02-18T04:59:24.602Z,87.16
2018-02-18T05:01:27.141Z,86.64
2018-02-18T05:03:29.599Z,86.15
2018-02-18T05:05:32.126Z,86.19
2018-02-18T05:07:34.635Z,86.37
2018-02-18T05:09:37.169Z,85.57
2018-02-18T05:11:39.652Z,86.29
2018-02-18T05:13:42.118Z,86.91
2018-02-18T05:15:44.616Z,87.31
2018-02-18T05:17:47.102Z,86.90
2018-02-18T05:19:49.585Z,87.32
2018-02-18T05:21:52.038Z,87.50
2018-02-18T05:23:54.570Z,87.06
2018-02-18T05:25:57.061Z,86.67
2018-02-18T05:27:59.571Z,86.64
2018-02-18T05:30:02.088Z,86.31
2018-02-18T05:32:04.749Z,86.01
2018-02-18T05:34:07.261Z,85.97
2018-02-18T05:36:09.711Z,85.98
2018-02-18T05:38:12.196Z,86.12
2018-02-18T05:40:14.684Z,85.52
2018-02-18T05:42:17.181Z,85.71
2018-02-18T05:44:19.648Z,85.56
2018-02-18T05:46:22.152Z,85.03
2018-02-18T05:48:24.631Z,85.77
2018-02-18T05:50:27.187Z,85.78
2018-02-18T05:52:29.781Z,84.97
2018-02-18T05:54:32.294Z,85.22
2018-02-18T05:56:34.740Z,85.22
2018-02-18T05:58:37.239Z,84.92
2018-02-18T06:00:39.700Z,84.94
2018-02-18T06:02:42.189Z,85.08
2018-02-18T06:04:44.665Z,85.21
2018-02-18T06:06:47.173Z,85.50
2018-02-18T06:08:49.621Z,83.78
2018-02-18T06:10:52.120Z,84.36
2018-02-18T06:12:54.615Z,84.03
2018-02-18T06:14:57.205Z,84.26
2018-02-18T06:16:59.701Z,84.89
2018-02-18T06:19:02.191Z,84.32
2018-02-18T06:21:04.685Z,84.64
2018-02-18T06:23:07.172Z,84.58
2018-02-18T06:25:09.625Z,84.97
2018-02-18T06:27:12.086Z,84.54
2018-02-18T06:29:14.566Z,84.64
2018-02-18T06:31:17.064Z,84.73
2018-02-18T06:33:19.642Z,84.53
2018-02-18T06:35:22.155Z,84.57
2018-02-18T06:37:24.665Z,84.71
2018-02-18T06:39:27.163Z,84.80
2018-02-18T06:41:29.626Z,85.00
2018-02-18T06:43:32.199Z,85.19
2018-02-18T06:45:34.642Z,84.70
2018-02-18T06:47:37.147Z,84.23
2018-02-18T06:49:39.626Z,84.83
2018-02-18T06:51:42.101Z,84.25
2018-02-18T06:53:44.593Z,84.13
2018-02-18T06:55:47.035Z,84.54
2018-02-18T06:57:49.560Z,83.67
2018-02-18T06:59:52.122Z,83.63
2018-02-18T07:01:54.583Z,83.95
2018-02-18T07:03:57.039Z,83.24
2018-02-18T07:05:59.574Z,83.51
2018-02-18T07:08:02.096Z,83.96
2018-02-18T07:10:04.631Z,84.03
2018-02-18T07:12:07.085Z,83.58
2018-02-18T07:14:09.532Z,83.80
2018-02-18T07:16:12.038Z,83.18
2018-02-18T07:18:14.498Z,82.84
2018-02-18T07:20:17.173Z,82.89
2018-02-18T07:22:19.678Z,82.58
2018-02-18T07:24:22.272Z,82.41
2018-02-18T07:26:24.873Z,82.33
2018-02-18T07:28:27.497Z,81.40
2018-02-18T07:30:29.949Z,81.33
2018-02-18T07:32:32.431Z,80.62
2018-02-18T07:34:34.944Z,81.08
2018-02-18T07:36:37.404Z,80.52
2018-02-18T07:38:39.858Z,80.46
2018-02-18T07:40:42.398Z,80.42
2018-02-18T07:42:45.023Z,79.59
2018-02-18T07:44:47.519Z,79.56
2018-02-18T07:46:50.017Z,79.26
2018-02-18T07:48:52.490Z,79.89
2018-02-18T07:50:54.953Z,79.27
2018-02-18T07:52:57.480Z,79.31
2018-02-18T07:54:59.942Z,78.73
2018-02-18T07:57:02.389Z,78.40
2018-02-18T07:59:04.857Z,78.82
2018-02-18T08:01:07.407Z,78.98
2018-02-18T08:03:09.954Z,78.66
2018-02-18T08:05:12.442Z,78.43
2018-02-18T08:07:15.039Z,79.40
2018-02-18T08:09:17.508Z,78.04
2018-02-18T08:11:20.023Z,78.91
2018-02-18T08:13:22.502Z,78.14
2018-02-18T08:15:24.983Z,78.16
2018-02-18T08:17:27.458Z,78.05
2018-02-18T08:19:30.008Z,78.52
2018-02-18T08:21:32.438Z,77.98
2018-02-18T08:23:34.987Z,77.32
2018-02-18T08:25:37.506Z,77.58
2018-02-18T08:27:40.068Z,77.24
2018-02-18T08:29:42.663Z,77.18
2018-02-18T08:31:45.144Z,76.86
2018-02-18T08:33:47.587Z,77.40
2018-02-18T08:35:50.047Z,77.76
2018-02-18T08:37:52.528Z,76.59
2018-02-18T08:39:54.951Z,77.31
2018-02-18T08:41:57.519Z,76.89
2018-02-18T08:44:00.018Z,76.44
2018-02-18T08:46:02.467Z,77.27
2018-02-18T08:48:05.014Z,75.97
2018-02-18T08:50:07.538Z,76.26
2018-02-18T08:52:10.005Z,76.21
2018-02-18T08:54:12.584Z,76.17
2018-02-18T08:56:15.044Z,76.86
2018-02-18T08:58:17.572Z,76.86
2018-02-18T09:00:20.154Z,76.39
2018-02-18T09:02:22.632Z,76.57
2018-02-18T09:04:25.097Z,75.50
2018-02-18T09:06:27.605Z,75.63
2018-02-18T09:08:30.116Z,76.19
2018-02-18T09:10:32.610Z,76.39
2018-02-18T09:12:35.100Z,76.82
2018-02-18T09:14:37.618Z,76.77
2018-02-18T09:16:40.077Z,75.99
2018-02-18T09:18:42.543Z,75.41
2018-02-18T09:20:45.029Z,75.67
2018-02-18T09:22:47.534Z,75.56
2018-02-18T09:24:50.054Z,75.63
2018-02-18T09:26:52.576Z,76.57
2018-02-18T09:28:55.033Z,76.39
2018-02-18T09:30:57.519Z,74.90
2018-02-18T09:33:00.015Z,75.43
2018-02-18T09:35:02.456Z,74.99
2018-02-18T09:37:04.937Z,75.25
2018-02-18T09:39:07.396Z,75.50
2018-02-18T09:41:09.885Z,74.92
2018-02-18T09:43:12.438Z,74.58
2018-02-18T09:45:14.883Z,73.75
2018-02-18T09:47:17.390Z,74.47
2018-02-18T09:49:19.877Z,73.70
2018-02-18T09:51:22.311Z,74.09
2018-02-18T09:53:24.885Z,74.25
2018-02-18T09:55:27.429Z,74.00
2018-02-18T09:57:29.881Z,73.95
2018-02-18T09:59:32.334Z,73.61
2018-02-18T10:01:34.841Z,73.83
2018-02-18T10:03:37.450Z,74.05
2018-02-18T10:05:39.955Z,73.48
2018-02-18T10:07:42.433Z,72.68
2018-02-18T10:09:44.898Z,72.38
2018-02-18T10:11:47.421Z,72.65
2018-02-18T10:13:49.991Z,72.58
2018-02-18T10:15:52.480Z,72.41
2018-02-18T10:17:54.984Z,72.14
2018-02-18T10:19:57.510Z,71.46
2018-02-18T10:21:59.988Z,72.29
2018-02-18T10:24:02.524Z,72.03
2018-02-18T10:26:04.999Z,71.92
2018-02-18T10:28:07.461Z,71.99
2018-02-18T10:30:10.065Z,72.59
2018-02-18T10:32:12.561Z,71.84
2018-02-18T10:34:15.040Z,73.28
2018-02-18T10:36:17.520Z,72.50
2018-02-18T10:38:19.970Z,72.62
2018-02-18T10:40:22.531Z,72.87
2018-02-18T10:42:25.026Z,71.84
2018-02-18T10:44:27.510Z,72.97
2018-02-18T10:46:30.115Z,72.38
2018-02-18T10:48:32.595Z,71.92
2018-02-18T10:50:35.125Z,71.72
2018-02-18T10:52:37.631Z,70.61
2018-02-18T10:54:40.108Z,70.14
2018-02-18T10:56:42.680Z,70.22
2018-02-18T10:58:45.221Z,70.16
2018-02-18T11:00:47.686Z,70.45
2018-02-18T11:02:50.144Z,69.61
2018-02-18T11:04:52.665Z,69.21
2018-02-18T11:06:55.171Z,69.15
2018-02-18T11:08:57.696Z,68.42
2018-02-18T11:11:00.182Z,68.55
2018-02-18T11:13:02.646Z,68.66
2018-02-18T11:15:05.225Z,69.02
2018-02-18T11:17:07.819Z,68.61
2018-02-18T11:19:10.280Z,68.36
2018-02-18T11:21:12.745Z,67.69
2018-02-18T11:23:15.310Z,66.69
2018-02-18T11:25:17.837Z,65.82
2018-02-18T11:27:20.654Z,63.08
2018-02-18T11:29:23.184Z,63.36
2018-02-18T11:31:25.691Z,62.26
2018-02-18T11:33:28.220Z,62.34
2018-02-18T11:35:30.695Z,62.06
2018-02-18T11:37:33.260Z,61.86
2018-02-18T11:39:35.758Z,60.77
2018-02-18T11:41:38.356Z,60.05
2018-02-18T11:43:40.854Z,60.88
2018-02-18T11:45:43.415Z,61.12
2018-02-18T11:47:45.847Z,59.32
2018-02-18T11:49:48.363Z,60.46
2018-02-18T11:51:50.861Z,60.23
2018-02-18T11:53:53.307Z,61.82
2018-02-18T11:55:55.795Z,59.80
2018-02-18T11:57:58.285Z,59.59
2018-02-18T12:00:00.746Z,59.38
2018-02-18T12:02:03.238Z,59.29
2018-02-18T12:04:05.766Z,58.84
2018-02-18T12:06:08.361Z,59.86
2018-02-18T12:08:10.853Z,60.77
2018-02-18T12:10:13.321Z,61.76
2018-02-18T12:12:15.767Z,61.53
2018-02-18T12:14:18.265Z,60.21
2018-02-18T12:16:20.806Z,59.94
2018-02-18T12:18:23.322Z,59.44
2018-02-18T12:20:25.771Z,59.85
2018-02-18T12:22:28.370Z,59.45
2018-02-18T12:24:30.812Z,59.18
2018-02-18T12:26:33.291Z,59.03
2018-02-18T12:28:35.805Z,59.48
2018-02-18T12:30:38.322Z,59.49
2018-02-18T12:32:40.836Z,61.12
2018-02-18T12:34:43.290Z,58.83
2018-02-18T12:36:45.866Z,59.31
2018-02-18T12:38:48.332Z,59.78
2018-02-18T12:40:50.947Z,59.61
2018-02-18T12:42:53.490Z,59.78
2018-02-18T12:44:55.927Z,59.91
2018-02-18T12:46:58.397Z,62.63
2018-02-18T12:49:00.896Z,61.44
2018-02-18T12:51:03.366Z,59.85
2018-02-18T12:53:05.881Z,60.65
2018-02-18T12:55:08.332Z,59.94
2018-02-18T12:57:10.767Z,58.92
2018-02-18T12:59:13.261Z,59.35
2018-02-18T13:01:15.785Z,60.22
2018-02-18T13:03:18.295Z,60.69
2018-02-18T13:05:20.866Z,59.86
2018-02-18T13:07:23.338Z,60.34
2018-02-18T13:09:25.852Z,59.81
2018-02-18T13:11:28.408Z,58.99
2018-02-18T13:13:30.878Z,60.02
2018-02-18T13:15:33.462Z,58.74
2018-02-18T13:17:35.963Z,59.09
2018-02-18T13:19:38.497Z,59.50
2018-02-18T13:21:40.986Z,60.55
2018-02-18T13:23:43.471Z,59.28
2018-02-18T13:25:45.994Z,59.58
2018-02-18T13:27:48.522Z,58.99
2018-02-18T13:29:51.095Z,60.10
2018-02-18T13:31:53.548Z,59.44
2018-02-18T13:33:56.057Z,59.19
2018-02-18T13:35:58.647Z,59.26
2018-02-18T13:38:01.233Z,60.35
2018-02-18T13:40:03.760Z,61.02
2018-02-18T13:42:06.243Z,60.75
2018-02-18T13:44:08.761Z,59.21
2018-02-18T13:46:11.256Z,58.65
2018-02-18T13:48:13.838Z,59.21
2018-02-18T13:50:16.328Z,59.73
2018-02-18T13:52:18.776Z,59.96
2018-02-18T13:54:21.317Z,60.36
2018-02-18T13:56:23.876Z,59.72
2018-02-18T13:58:26.402Z,59.86
2018-02-18T14:00:28.863Z,59.21
2018-02-18T14:02:31.368Z,60.46
2018-02-18T14:04:33.889Z,59.67
2018-02-18T14:06:36.386Z,60.88
2018-02-18T14:08:38.871Z,61.28
2018-02-18T14:10:41.366Z,61.24
2018-02-18T14:12:43.866Z,61.06
2018-02-18T14:14:46.298Z,61.73
2018-02-18T14:16:48.801Z,61.81
2018-02-18T14:18:51.266Z,60.67
2018-02-18T14:20:53.772Z,60.57
2018-02-18T14:22:56.287Z,61.02
2018-02-18T14:24:58.913Z,61.81
2018-02-18T14:27:01.365Z,61.63
2018-02-18T14:29:03.881Z,61.25
2018-02-18T14:31:06.392Z,61.58
2018-02-18T14:33:08.848Z,61.13
2018-02-18T14:35:11.327Z,61.68
2018-02-18T14:37:13.847Z,61.67
2018-02-18T14:39:16.327Z,61.68
2018-02-18T14:41:30.723Z,61.77
2018-02-18T14:43:44.832Z,62.56
2018-02-18T14:45:59.021Z,62.99
2018-02-18T14:48:13.082Z,64.01
2018-02-18T14:50:27.323Z,64.55
2018-02-18T14:52:41.557Z,63.86
2018-02-18T14:57:25.912Z,63.25
2018-02-18T14:59:28.419Z,62.68
2018-02-18T15:01:30.927Z,62.66
2018-02-18T15:03:33.491Z,63.02
2018-02-18T15:05:35.964Z,63.38
2018-02-18T15:07:38.454Z,62.79
2018-02-18T15:09:40.949Z,62.37
2018-02-18T15:11:43.461Z,62.31
2018-02-18T15:13:45.928Z,61.99
2018-02-18T15:15:48.438Z,62.29
2018-02-18T15:17:50.907Z,62.18
2018-02-18T15:19:53.349Z,63.08
2018-02-18T15:21:55.877Z,62.25
2018-02-18T15:23:58.354Z,62.00
2018-02-18T15:26:00.876Z,62.47
2018-02-18T15:28:03.377Z,63.11
2018-02-18T15:30:05.824Z,63.51
2018-02-18T15:32:08.352Z,63.50
2018-02-18T15:34:10.925Z,63.79
2018-02-18T15:36:13.438Z,63.59
2018-02-18T15:38:15.990Z,64.05
2018-02-18T15:40:18.498Z,63.77
2018-02-18T15:42:20.985Z,64.18
2018-02-18T15:44:23.564Z,66.06
2018-02-18T15:46:26.065Z,64.43
2018-02-18T15:48:28.563Z,64.66
2018-02-18T15:50:31.034Z,64.67
2018-02-18T15:52:33.520Z,64.77
2018-02-18T15:54:35.999Z,64.50
2018-02-18T15:56:38.490Z,64.35
2018-02-18T15:58:41.115Z,65.98
2018-02-18T16:00:43.653Z,66.25
2018-02-18T16:02:46.109Z,66.69
2018-02-18T16:04:48.628Z,66.46
2018-02-18T16:06:51.113Z,65.96
2018-02-18T16:08:53.612Z,66.01
2018-02-18T16:10:56.159Z,65.62
2018-02-18T16:12:58.625Z,66.91
2018-02-18T16:15:01.089Z,66.53
2018-02-18T16:17:03.628Z,65.96
2018-02-18T16:19:06.104Z,66.08
2018-02-18T16:21:08.660Z,66.45
2018-02-18T16:23:11.131Z,66.81
2018-02-18T16:25:13.616Z,66.37
2018-02-18T16:27:16.118Z,66.77
2018-02-18T16:29:18.625Z,66.99
2018-02-18T16:31:21.004Z,66.77
2018-02-18T16:33:23.520Z,67.27
2018-02-18T16:35:26.088Z,67.94
2018-02-18T16:37:28.588Z,67.10
2018-02-18T16:39:31.183Z,67.11
2018-02-18T16:41:33.674Z,67.48
2018-02-18T16:43:36.279Z,67.68
2018-02-18T16:45:38.770Z,67.60
2018-02-18T16:47:41.213Z,67.43
2018-02-18T16:49:43.660Z,67.72
2018-02-18T16:51:46.156Z,67.88
2018-02-18T16:53:48.611Z,67.53
2018-02-18T16:55:51.056Z,68.04
2018-02-18T16:57:53.614Z,69.65
2018-02-18T16:59:56.119Z,69.47
2018-02-18T17:01:58.709Z,69.71
2018-02-18T17:04:01.248Z,70.98
2018-02-18T17:06:03.775Z,71.06
2018-02-18T17:08:06.232Z,70.16
2018-02-18T17:10:08.785Z,69.83
2018-02-18T17:12:11.318Z,69.32
2018-02-18T17:14:13.804Z,70.03
2018-02-18T17:16:16.359Z,68.97
2018-02-18T17:18:18.907Z,69.07
2018-02-18T17:20:21.454Z,68.07
2018-02-18T17:22:24.025Z,67.49
2018-02-18T17:24:26.641Z,68.13
2018-02-18T17:26:29.240Z,68.47
2018-02-18T17:28:31.833Z,68.76
2018-02-18T17:30:34.426Z,68.45
2018-02-18T17:32:37.024Z,68.97
2018-02-18T17:34:39.521Z,69.04
2018-02-18T17:36:42.009Z,69.05
2018-02-18T17:38:44.535Z,69.22
2018-02-18T17:40:47.007Z,69.49
2018-02-18T17:42:49.539Z,69.26
2018-02-18T17:44:52.084Z,69.18
2018-02-18T17:46:54.580Z,69.45
2018-02-18T17:48:57.132Z,69.45
2018-02-18T17:50:59.612Z,69.66
2018-02-18T17:53:02.145Z,69.55
2018-02-18T17:55:04.762Z,69.81
2018-02-18T17:57:07.290Z,70.87
2018-02-18T17:59:09.803Z,69.57
2018-02-18T18:01:12.272Z,69.91
2018-02-18T18:03:14.829Z,70.13
2018-02-18T18:05:18.142Z,70.40
2018-02-18T18:07:20.592Z,70.86
2018-02-18T18:09:23.261Z,70.29
2018-02-18T18:11:25.770Z,70.99
2018-02-18T18:13:28.337Z,70.92
2018-02-18T18:15:30.812Z,70.84
2018-02-18T18:17:33.283Z,71.93
2018-02-18T18:19:35.898Z,72.24
2018-02-18T18:21:38.414Z,72.22
2018-02-18T18:23:40.926Z,72.04
2018-02-18T18:25:43.485Z,72.25
2018-02-18T18:27:46.311Z,72.52
2018-02-18T18:29:48.877Z,72.88
2018-02-18T18:31:51.263Z,72.79
2018-02-18T18:33:53.782Z,73.14
2018-02-18T18:35:56.282Z,73.09
2018-02-18T18:37:58.743Z,70.74
2018-02-18T18:40:01.265Z,71.11
2018-02-18T18:42:03.787Z,72.35
2018-02-18T18:44:06.462Z,73.83
2018-02-18T18:46:08.963Z,75.89
2018-02-18T18:48:11.525Z,76.78
2018-02-18T18:50:14.076Z,77.16
2018-02-18T18:52:16.580Z,76.14
2018-02-18T18:54:19.150Z,76.18
2018-02-18T18:56:21.641Z,76.87
2018-02-18T18:58:24.190Z,77.06
2018-02-18T19:00:26.688Z,76.79
2018-02-18T19:02:29.287Z,76.91
2018-02-18T19:04:31.754Z,76.08
2018-02-18T19:06:34.285Z,76.26
2018-02-18T19:08:36.794Z,75.81
2018-02-18T19:10:39.328Z,73.50
2018-02-18T19:12:41.947Z,74.31
2018-02-18T19:14:44.448Z,73.74
2018-02-18T19:16:46.943Z,73.51
2018-02-18T19:18:49.532Z,74.31
2018-02-18T19:20:52.020Z,74.85
2018-02-18T19:22:54.624Z,74.37
2018-02-18T19:24:57.215Z,73.90
2018-02-18T19:26:59.687Z,74.03
2018-02-18T19:29:02.210Z,72.54
2018-02-18T19:31:04.680Z,72.43
2018-02-18T19:33:07.208Z,72.89
2018-02-18T19:35:09.776Z,72.93
2018-02-18T19:37:12.226Z,71.69
2018-02-18T19:39:14.740Z,72.27
2018-02-18T19:41:17.238Z,71.93
2018-02-18T19:43:19.725Z,72.14
2018-02-18T19:45:22.296Z,71.47
2018-02-18T19:47:24.761Z,71.38
2018-02-18T19:49:27.333Z,70.74
2018-02-18T19:51:29.822Z,69.78
2018-02-18T19:53:32.391Z,70.32
2018-02-18T19:55:34.904Z,69.67
2018-02-18T19:57:37.495Z,69.71
2018-02-18T19:59:40.107Z,68.77
2018-02-18T20:01:42.709Z,69.42
2018-02-18T20:03:45.273Z,68.65
2018-02-18T20:05:47.883Z,68.46
2018-02-18T20:07:50.459Z,68.02
2018-02-18T20:09:53.082Z,68.15
2018-02-18T20:11:55.584Z,67.66
2018-02-18T20:13:58.276Z,67.20
2018-02-18T20:16:00.861Z,66.93
2018-02-18T20:18:03.633Z,67.38
2018-02-18T20:20:06.282Z,66.92
2018-02-18T20:22:08.870Z,66.48
2018-02-18T20:24:11.508Z,66.93
2018-02-18T20:26:14.154Z,65.72
2018-02-18T20:28:16.704Z,66.48
2018-02-18T20:30:19.382Z,66.41
2018-02-18T20:32:22.039Z,66.95
2018-02-18T20:34:24.762Z,68.02
2018-02-18T20:36:27.287Z,66.37
2018-02-18T20:38:29.746Z,66.85
2018-02-18T20:40:32.217Z,66.68
2018-02-18T20:42:34.814Z,66.73
2018-02-18T20:44:37.332Z,66.78
2018-02-18T20:46:39.824Z,66.87
2018-02-18T20:48:42.503Z,66.58
2018-02-18T20:50:44.982Z,66.56
2018-02-18T20:52:47.592Z,67.24
2018-02-18T20:54:50.214Z,67.18
2018-02-18T20:56:52.718Z,66.94
2018-02-18T20:58:55.373Z,67.01
2018-02-18T21:00:57.826Z,67.31
2018-02-18T21:03:00.314Z,67.11
2018-02-18T21:05:02.862Z,66.84
2018-02-18T21:07:05.392Z,67.01
2018-02-18T21:09:07.893Z,67.45
2018-02-18T21:11:10.379Z,66.50
2018-02-18T21:13:12.889Z,66.99
2018-02-18T21:15:15.547Z,67.30
2018-02-18T21:17:18.025Z,67.48
2018-02-18T21:19:20.508Z,67.46
2018-02-18T21:21:23.041Z,66.60
2018-02-18T21:23:25.597Z,67.33
2018-02-18T21:25:28.090Z,67.11
2018-02-18T21:27:31.515Z,67.47
2018-02-18T21:29:34.066Z,67.60
2018-02-18T21:31:36.715Z,67.62
2018-02-18T21:33:39.226Z,67.29
2018-02-18T21:35:41.957Z,67.37
2018-02-18T21:37:44.637Z,68.58
2018-02-18T21:39:47.164Z,67.25
2018-02-18T21:41:49.673Z,67.62
2018-02-18T21:43:52.203Z,67.82
2018-02-18T21:45:54.724Z,67.53
2018-02-18T21:47:57.159Z,67.66
2018-02-18T21:49:59.743Z,68.12
2018-02-18T21:52:02.208Z,68.05
2018-02-18T21:54:04.697Z,67.21
2018-02-18T21:56:07.193Z,67.78
2018-02-18T21:58:09.652Z,68.94
2018-02-18T22:00:12.119Z,69.36
2018-02-18T22:02:14.710Z,68.68
2018-02-18T22:04:17.174Z,68.84
2018-02-18T22:06:19.669Z,68.13
2018-02-18T22:08:22.142Z,68.86
2018-02-18T22:10:24.992Z,69.16
2018-02-18T22:12:27.592Z,68.91
2018-02-18T22:14:30.038Z,68.41
2018-02-18T22:16:32.554Z,68.63
2018-02-18T22:18:35.021Z,70.81
2018-02-18T22:20:37.525Z,70.42
2018-02-18T22:22:40.019Z,70.32
2018-02-18T22:24:42.567Z,69.47
2018-02-18T22:26:45.070Z,69.57
2018-02-18T22:28:47.559Z,70.36
2018-02-18T22:30:50.084Z,71.17
2018-02-18T22:32:52.610Z,70.36
2018-02-18T22:34:55.206Z,70.38
2018-02-18T22:36:57.724Z,71.06
2018-02-18T22:39:00.321Z,70.17
2018-02-18T22:41:02.787Z,70.86
2018-02-18T22:43:05.261Z,70.95
2018-02-18T22:45:07.765Z,71.70
2018-02-18T22:47:10.230Z,71.42
2018-02-18T22:49:12.749Z,72.12
2018-02-18T22:51:15.208Z,72.73
2018-02-18T22:53:17.654Z,72.93
2018-02-18T22:55:20.144Z,72.66
2018-02-18T22:57:22.601Z,73.69
2018-02-18T22:59:25.030Z,73.72
2018-02-18T23:01:27.619Z,74.05
2018-02-18T23:03:31.238Z,74.70
2018-02-18T23:05:39.225Z,74.09
2018-02-18T23:07:41.849Z,73.57
2018-02-18T23:09:44.291Z,73.31
2018-02-18T23:11:46.825Z,74.51
2018-02-18T23:13:49.358Z,73.35
2018-02-18T23:15:51.825Z,73.15
2018-02-18T23:17:54.266Z,74.60
2018-02-18T23:19:56.728Z,75.41
2018-02-18T23:21:59.228Z,72.43
2018-02-18T23:24:01.673Z,73.76
2018-02-18T23:26:04.184Z,74.35
2018-02-18T23:28:06.682Z,72.11
2018-02-18T23:30:09.130Z,72.95
2018-02-18T23:32:11.604Z,72.94
2018-02-18T23:34:14.075Z,73.61
2018-02-18T23:36:16.604Z,73.59
2018-02-18T23:38:19.164Z,73.43
2018-02-18T23:40:21.627Z,73.41
2018-02-18T23:42:24.108Z,73.84
2018-02-18T23:44:26.623Z,75.05
2018-02-18T23:46:29.080Z,75.20
2018-02-18T23:48:31.614Z,74.93
2018-02-18T23:50:34.104Z,74.90
2018-02-18T23:52:36.570Z,75.01
2018-02-18T23:54:39.094Z,76.05
2018-02-18T23:56:41.579Z,74.54
2018-02-18T23:58:44.079Z,75.25
